Time;durP1;ratioP1;P1;durP2;ratioP2;P2;SDS_P1;SDS_P2;PMS_P1;PMS_P2;Temp;Humidity;BMP_temperature;BMP_pressure;BME280_temperature;BME280_humidity;BME280_pressure;Samples;Min_cycle;Max_cycle;Signal;HPM_P1;HPM_P2
2021/01/03 00:01:16;;;;;;;16.07;10.38;;;;;;;1.38;67.74;101537.95;1716963;82;21223;-54
2021/01/03 00:03:44;;;;;;;16.42;11.03;;;;;;;1.39;67.54;101539.67;1758322;80;21654;-54
2021/01/03 00:06:13;;;;;;;15.48;10.00;;;;;;;1.37;67.39;101538.86;1760376;80;21165;-54
2021/01/03 00:08:41;;;;;;;22.17;10.95;;;;;;;1.34;67.21;101540.22;1749794;81;21199;-54
2021/01/03 00:11:09;;;;;;;18.40;11.15;;;;;;;1.28;67.14;101539.93;1756093;80;21899;-54
2021/01/03 00:13:37;;;;;;;19.27;9.93;;;;;;;1.26;67.26;101546.86;1758925;80;21196;-54
2021/01/03 00:16:05;;;;;;;16.73;9.53;;;;;;;1.25;67.38;101540.84;1757206;80;21179;-54
2021/01/03 00:18:33;;;;;;;17.12;9.75;;;;;;;1.26;67.32;101547.73;1744629;81;21180;-54
2021/01/03 00:21:00;;;;;;;15.88;8.55;;;;;;;1.24;67.30;101546.05;1757018;80;21149;-54
2021/01/03 00:23:28;;;;;;;16.15;9.00;;;;;;;1.24;67.34;101540.87;1755703;80;21498;-54
2021/01/03 00:25:55;;;;;;;15.83;8.55;;;;;;;1.24;67.78;101536.98;1756247;80;21165;-54
2021/01/03 00:28:23;;;;;;;14.65;9.78;;;;;;;1.26;68.25;101537.37;1756038;81;21149;-54
2021/01/03 00:30:51;;;;;;;13.32;9.25;;;;;;;1.26;68.38;101533.90;1752237;81;21229;-54
2021/01/03 00:33:18;;;;;;;15.38;7.42;;;;;;;1.28;68.39;101540.77;1747417;80;21657;-54
2021/01/03 00:35:46;;;;;;;14.23;8.70;;;;;;;1.29;68.42;101541.19;1759445;80;21287;-54
2021/01/03 00:38:14;;;;;;;14.50;9.35;;;;;;;1.31;68.65;101543.72;1755135;81;21167;-54
2021/01/03 00:40:44;;;;;;;17.95;9.23;;;;;;;1.32;68.67;101536.36;1753532;81;21169;-54
2021/01/03 00:43:13;;;;;;;13.13;7.42;;;;;;;1.40;68.71;101545.28;1755604;80;21552;-54
2021/01/03 00:45:41;;;;;;;15.25;7.78;;;;;;;1.49;68.49;101535.97;1715589;83;21139;-54
2021/01/03 00:48:09;;;;;;;15.15;7.97;;;;;;;1.53;68.45;101532.42;1716897;82;21442;-54
2021/01/03 00:50:37;;;;;;;15.78;8.35;;;;;;;1.52;68.65;101524.22;1712326;83;21203;-55
2021/01/03 00:53:05;;;;;;;15.93;7.95;;;;;;;1.51;68.86;101526.40;1709202;82;21194;-55
2021/01/03 00:55:32;;;;;;;16.70;9.20;;;;;;;1.52;68.51;101535.05;1711176;82;21163;-54
2021/01/03 00:57:59;;;;;;;15.78;8.60;;;;;;;1.47;68.25;101532.11;1715265;82;21634;-54
2021/01/03 01:00:32;;;;;;;18.17;10.15;;;;;;;1.47;68.04;101532.56;1717374;82;22012;-55
2021/01/03 01:02:59;;;;;;;16.40;7.35;;;;;;;1.43;67.83;101525.30;1756402;80;21208;-54
2021/01/03 01:05:27;;;;;;;15.32;8.08;;;;;;;1.40;67.82;101530.56;1756351;81;21173;-54
2021/01/03 01:07:54;;;;;;;16.35;8.60;;;;;;;1.38;67.79;101531.47;1757516;80;21200;-54
2021/01/03 01:10:25;;;;;;;15.13;8.48;;;;;;;1.38;67.63;101529.75;1756172;81;21746;-55
2021/01/03 01:12:56;;;;;;;12.70;8.08;;;;;;;1.36;67.60;101532.83;1754429;81;21342;-54
2021/01/03 01:15:26;;;;;;;16.85;8.73;;;;;;;1.34;67.55;101527.25;1751163;80;21118;-54
2021/01/03 01:17:55;;;;;;;14.68;8.18;;;;;;;1.28;67.68;101523.92;1754050;80;21191;-54
2021/01/03 01:20:25;;;;;;;16.30;9.55;;;;;;;1.27;67.75;101524.80;1753988;80;21533;-54
2021/01/03 01:22:53;;;;;;;14.87;9.18;;;;;;;1.23;67.73;101520.58;1753193;80;21192;-54
2021/01/03 01:25:25;;;;;;;24.63;9.35;;;;;;;1.19;67.62;101522.81;1751668;80;22257;-54
2021/01/03 01:27:55;;;;;;;15.80;9.05;;;;;;;1.18;67.57;101521.55;1755258;80;21189;-54
2021/01/03 01:30:24;;;;;;;15.98;8.65;;;;;;;1.21;67.38;101522.78;1752186;80;21591;-54
2021/01/03 01:32:51;;;;;;;12.90;7.72;;;;;;;1.16;67.41;101522.91;1739390;80;21220;-54
2021/01/03 01:35:23;;;;;;;15.60;8.35;;;;;;;1.16;67.64;101521.61;1740396;80;21201;-54
2021/01/03 01:37:51;;;;;;;17.35;10.15;;;;;;;1.14;67.78;101522.06;1742120;80;21225;-54
2021/01/03 01:40:21;;;;;;;19.02;11.48;;;;;;;1.18;67.72;101530.62;1742586;81;21177;-54
2021/01/03 01:42:48;;;;;;;21.52;12.73;;;;;;;1.13;67.65;101529.88;1741680;80;21152;-54
2021/01/03 01:45:18;;;;;;;18.77;11.95;;;;;;;1.11;67.47;101537.27;1738771;80;22069;-54
2021/01/03 01:47:48;;;;;;;22.27;12.05;;;;;;;1.04;67.45;101533.11;1738888;80;21593;-54
2021/01/03 01:50:22;;;;;;;25.85;13.93;;;;;;;1.01;67.49;101542.25;1744032;80;21296;-54
2021/01/03 01:52:53;;;;;;;20.10;10.53;;;;;;;0.97;67.63;101538.45;1740264;80;21173;-54
2021/01/03 01:55:25;;;;;;;23.25;13.35;;;;;;;0.95;68.07;101538.93;1741653;81;21138;-54
2021/01/03 01:58:13;;;;;;;19.17;11.95;;;;;;;0.94;68.28;101545.83;1738328;80;21608;-54
2021/01/03 02:00:42;;;;;;;16.35;10.48;;;;;;;0.99;68.46;101544.44;1741062;80;21146;-53
2021/01/03 02:03:44;;;;;;;16.42;11.95;;;;;;;1.04;68.80;101547.79;1740497;80;21211;-54
2021/01/03 02:06:21;;;;;;;18.57;10.60;;;;;;;1.07;68.94;101550.32;1728620;80;21669;-55
2021/01/03 02:09:11;;;;;;;17.52;10.85;;;;;;;1.16;69.17;101550.55;1740761;80;21200;-55
2021/01/03 02:11:39;;;;;;;20.50;11.43;;;;;;;1.21;69.91;101561.67;1741188;80;21200;-55
2021/01/03 02:14:07;;;;;;;19.17;9.88;;;;;;;1.35;70.85;101563.53;1740433;80;21543;-54
2021/01/03 02:16:36;;;;;;;14.38;9.73;;;;;;;1.53;71.07;101562.69;1743028;81;21215;-54
2021/01/03 02:19:08;;;;;;;18.12;9.45;;;;;;;1.69;71.40;101567.08;1740443;80;21215;-56
2021/01/03 02:22:06;;;;;;;17.90;9.10;;;;;;;1.83;71.65;101567.58;1741448;80;21191;-55
2021/01/03 02:24:44;;;;;;;16.90;9.33;;;;;;;1.95;71.93;101558.20;1739879;81;21137;-54
2021/01/03 02:27:20;;;;;;;15.55;8.50;;;;;;;2.04;72.24;101560.55;1742741;80;21117;-55
2021/01/03 02:29:49;;;;;;;17.60;9.78;;;;;;;2.11;72.30;101555.22;1739722;80;23628;-55
2021/01/03 02:32:17;;;;;;;15.28;8.23;;;;;;;2.17;72.50;101555.03;1754790;80;21150;-55
2021/01/03 02:34:47;;;;;;;16.95;8.65;;;;;;;2.19;72.55;101552.82;1704144;80;21556;-54
2021/01/03 02:37:29;;;;;;;13.95;7.53;;;;;;;2.34;72.44;101557.22;1754630;80;21181;-55
2021/01/03 02:40:11;;;;;;;13.72;7.37;;;;;;;2.54;72.18;101551.45;1753239;80;22224;-54
2021/01/03 02:42:40;;;;;;;15.28;7.90;;;;;;;2.69;72.02;101556.66;1752979;80;21223;-55
2021/01/03 02:45:13;;;;;;;15.72;7.97;;;;;;;2.74;71.96;101560.86;1752194;80;21234;-55
2021/01/03 02:47:41;;;;;;;17.98;8.90;;;;;;;2.74;72.02;101559.55;1754308;80;21153;-53
2021/01/03 02:50:11;;;;;;;17.60;8.83;;;;;;;2.76;72.01;101562.11;1754499;80;21209;-54
2021/01/03 02:52:42;;;;;;;16.67;10.00;;;;;;;2.77;72.03;101565.09;1755964;80;21185;-53
2021/01/03 02:55:10;;;;;;;15.68;8.90;;;;;;;2.79;72.00;101564.17;1754539;80;23625;-53
2021/01/03 02:57:38;;;;;;;16.90;9.08;;;;;;;2.82;71.91;101567.11;1752651;80;21228;-53
2021/01/03 03:00:25;;;;;;;15.85;9.13;;;;;;;2.81;71.93;101562.83;1754753;80;21593;-53
2021/01/03 03:02:53;;;;;;;16.05;8.30;;;;;;;2.82;71.93;101567.58;1752951;80;21552;-53
2021/01/03 03:05:21;;;;;;;15.68;6.92;;;;;;;2.92;71.86;101560.75;1752236;80;21192;-54
2021/01/03 03:07:48;;;;;;;16.10;9.00;;;;;;;2.97;71.90;101560.62;1754347;80;21438;-53
2021/01/03 03:10:17;;;;;;;12.75;7.15;;;;;;;2.92;71.98;101553.41;1752499;80;21798;-53
2021/01/03 03:12:55;;;;;;;16.02;8.38;;;;;;;2.86;72.17;101550.55;1714276;82;21117;-53
2021/01/03 03:15:25;;;;;;;16.45;9.83;;;;;;;2.85;72.26;101564.44;1751201;80;21220;-54
2021/01/03 03:17:53;;;;;;;19.32;10.05;;;;;;;2.85;72.32;101559.69;1756714;80;21265;-54
2021/01/03 03:20:22;;;;;;;17.07;9.58;;;;;;;2.85;72.40;101568.79;1752313;80;21427;-54
2021/01/03 03:22:50;;;;;;;17.50;9.10;;;;;;;2.86;72.37;101567.45;1753201;80;21481;-55
2021/01/03 03:27:22;;;;;;;13.32;7.03;;;;;;;3.00;72.19;101561.84;1795341;79;23097;-55
2021/01/03 03:29:50;;;;;;;14.13;9.40;;;;;;;2.92;72.23;101558.61;1768744;78;21215;-54
2021/01/03 03:32:17;;;;;;;16.57;8.65;;;;;;;2.91;72.27;101556.92;1765025;80;23612;-55
2021/01/03 03:34:46;;;;;;;12.58;8.10;;;;;;;2.89;72.41;101561.30;1767064;78;21207;-55
2021/01/03 03:37:13;;;;;;;15.00;8.38;;;;;;;2.90;72.49;101560.41;1766659;78;21128;-55
2021/01/03 03:39:41;;;;;;;24.87;8.30;;;;;;;2.89;72.44;101563.47;1767644;80;21599;-55
2021/01/03 03:42:09;;;;;;;17.17;9.65;;;;;;;2.92;72.49;101563.81;1770368;80;21631;-54
2021/01/03 03:44:36;;;;;;;15.93;8.85;;;;;;;2.92;72.41;101562.51;1770990;78;21258;-55
2021/01/03 03:47:04;;;;;;;16.97;8.63;;;;;;;2.98;72.30;101563.18;1770664;78;21849;-55
2021/01/03 03:49:32;;;;;;;14.10;7.37;;;;;;;3.11;71.99;101570.61;1762677;78;21614;-55
2021/01/03 03:52:05;;;;;;;13.80;7.12;;;;;;;3.19;71.79;101559.53;1713678;83;21511;-55
2021/01/03 03:54:33;;;;;;;14.30;7.00;;;;;;;3.19;71.68;101563.43;1698969;82;21184;-55
2021/01/03 03:57:04;;;;;;;11.57;7.08;;;;;;;3.15;71.79;101571.78;1707756;81;21216;-55
2021/01/03 03:59:32;;;;;;;13.78;7.42;;;;;;;3.09;71.87;101566.78;1705860;82;21157;-55
2021/01/03 04:01:59;;;;;;;18.27;9.08;;;;;;;3.05;71.93;101569.05;1707030;81;21177;-55
2021/01/03 04:04:27;;;;;;;14.70;7.80;;;;;;;3.04;72.03;101571.70;1712142;82;21513;-55
2021/01/03 04:06:54;;;;;;;13.30;7.12;;;;;;;3.01;72.08;101579.16;1707859;81;21178;-55
2021/01/03 04:09:22;;;;;;;12.37;7.25;;;;;;;2.99;72.07;101577.02;1716917;81;22328;-54
2021/01/03 04:11:51;;;;;;;12.73;7.50;;;;;;;3.04;71.98;101581.64;1710190;81;21198;-54
2021/01/03 04:17:59;;;;;;;14.00;7.55;;;;;;;3.11;71.91;101575.38;1709672;82;21155;-52
2021/01/03 04:20:35;;;;;;;13.10;7.42;;;;;;;3.12;72.10;101579.67;1708180;82;21146;-53
2021/01/03 04:23:05;;;;;;;16.30;7.72;;;;;;;3.13;72.07;101580.08;1707093;82;21449;-54
2021/01/03 04:25:38;;;;;;;;;;;;;;;3.16;72.03;101581.30;1709609;81;21331;-55
2021/01/03 04:28:05;;;;;;;17.02;9.25;;;;;;;3.20;71.95;101583.81;1700514;84;20273;-55
2021/01/03 04:30:33;;;;;;;13.53;7.33;;;;;;;3.13;72.03;101586.58;1687653;84;21227;-55
2021/01/03 04:33:06;;;;;;;11.80;6.85;;;;;;;3.14;72.00;101591.33;1698021;84;21183;-55
2021/01/03 04:35:33;;;;;;;13.65;7.15;;;;;;;3.19;71.95;101585.54;1688937;82;22285;-55
2021/01/03 04:41:26;;;;;;;10.00;6.12;;;;;;;3.41;71.55;101584.89;1703995;78;62949;-68
2021/01/03 04:44:10;;;;;;;13.43;7.03;;;;;;;3.44;71.54;101584.34;1705972;82;21641;-68
2021/01/03 04:46:40;;;;;;;14.53;7.67;;;;;;;3.43;71.46;101589.59;1709569;82;21625;-71
2021/01/03 04:49:13;;;;;;;17.27;7.92;;;;;;;3.38;71.49;101585.85;1705444;82;21445;-71
2021/01/03 04:52:10;;;;;;;11.68;6.85;;;;;;;3.37;71.55;101585.44;1694232;83;21230;-71
2021/01/03 04:54:38;;;;;;;13.08;6.65;;;;;;;3.34;71.56;101588.97;1664374;85;21291;-70
2021/01/03 04:57:08;;;;;;;13.32;7.10;;;;;;;3.30;71.63;101591.28;1683160;83;21157;-70
2021/01/03 04:59:45;;;;;;;13.50;6.67;;;;;;;3.27;71.70;101590.52;1708966;81;21166;-70
2021/01/03 05:02:53;;;;;;;9.95;6.22;;;;;;;3.30;71.62;101587.84;1723956;81;21185;-69
2021/01/03 05:05:24;;;;;;;10.57;5.90;;;;;;;3.39;71.50;101588.84;1725813;81;21180;-70
2021/01/03 05:08:27;;;;;;;11.90;7.00;;;;;;;3.50;71.36;101591.12;1690401;82;21210;-69
2021/01/03 05:11:05;;;;;;;11.30;6.53;;;;;;;3.59;71.20;101597.33;1694908;84;21132;-70
2021/01/03 05:13:38;;;;;;;10.03;5.92;;;;;;;3.65;71.13;101597.61;1686627;82;21188;-69
2021/01/03 05:16:12;;;;;;;10.70;6.20;;;;;;;3.61;70.98;101597.28;1694691;83;22290;-68
2021/01/03 05:18:39;;;;;;;9.83;5.08;;;;;;;3.56;71.00;101600.48;1703038;81;21629;-68
2021/01/03 05:21:07;;;;;;;9.03;4.75;;;;;;;3.47;71.08;101612.03;1713472;81;21186;-69
2021/01/03 05:23:38;;;;;;;13.50;6.72;;;;;;;3.37;71.29;101612.76;1710190;81;21134;-67
2021/01/03 05:26:09;;;;;;;11.93;5.85;;;;;;;3.33;71.43;101611.16;1718374;81;21642;-67
2021/01/03 05:28:37;;;;;;;11.08;6.40;;;;;;;3.25;71.54;101612.68;1724199;81;21390;-69
2021/01/03 05:31:17;;;;;;;12.03;5.15;;;;;;;3.29;71.60;101616.03;1665428;84;21203;-69
2021/01/03 05:34:00;;;;;;;11.25;5.15;;;;;;;3.37;71.44;101615.82;1717225;81;21162;-68
2021/01/03 05:36:42;;;;;;;9.78;5.08;;;;;;;3.42;71.38;101616.53;1717906;81;21209;-68
2021/01/03 05:39:22;;;;;;;10.80;5.55;;;;;;;3.40;71.39;101616.58;1717695;81;21185;-68
2021/01/03 05:42:24;;;;;;;10.13;5.03;;;;;;;3.37;71.62;101614.52;1704593;81;21396;-68
2021/01/03 05:45:10;;;;;;;10.68;5.53;;;;;;;3.32;71.70;101621.16;1704183;82;21200;-67
2021/01/03 05:47:43;;;;;;;9.75;5.22;;;;;;;3.27;71.87;101619.98;1701888;82;21225;-67
2021/01/03 05:50:30;;;;;;;10.43;5.12;;;;;;;3.23;71.95;101610.58;1696784;82;21221;-68
2021/01/03 05:53:27;;;;;;;10.67;5.33;;;;;;;3.20;72.06;101613.72;1697301;82;21170;-68
2021/01/03 05:56:00;;;;;;;8.80;4.55;;;;;;;3.23;72.00;101611.88;1697803;82;21890;-71
2021/01/03 05:58:38;;;;;;;7.97;3.47;;;;;;;3.35;71.88;101611.50;1696820;82;21202;-68
2021/01/03 06:01:33;;;;;;;7.65;3.70;;;;;;;3.45;71.88;101615.14;1706586;82;21856;-69
2021/01/03 06:04:53;;;;;;;9.73;4.78;;;;;;;3.46;71.62;101619.00;1659124;85;21212;-67
2021/01/03 06:08:24;;;;;;;9.65;4.80;;;;;;;3.41;71.85;101623.46;1694889;82;21189;-68
2021/01/03 06:15:45;;;;;;;9.35;4.87;;;;;;;3.33;72.15;101615.91;1695258;82;21723;-67
2021/01/03 06:19:13;;;;;;;8.08;4.53;;;;;;;3.25;72.28;101623.08;1686556;82;21629;-67
2021/01/03 06:22:04;;;;;;;11.20;5.45;;;;;;;3.29;72.29;101622.08;1696211;83;21583;-66
2021/01/03 06:25:50;;;;;;;7.40;4.63;;;;;;;3.41;72.19;101620.02;1686237;84;21147;-68
2021/01/03 06:29:08;;;;;;;7.75;4.70;;;;;;;3.49;72.02;101622.78;1694629;82;21643;-67
2021/01/03 06:32:39;;;;;;;9.08;4.90;;;;;;;3.53;72.06;101618.33;1676354;83;21137;-67
2021/01/03 06:43:08;;;;;;;12.40;5.45;;;;;;;3.45;72.27;101621.19;1666776;83;21808;-67
2021/01/03 06:49:53;;;;;;;10.13;5.25;;;;;;;3.49;72.18;101611.08;1631771;82;21783;-56
2021/01/03 06:53:08;;;;;;;7.22;4.35;;;;;;;3.62;72.06;101622.42;1654859;84;21213;-55
2021/01/03 07:03:25;;;;;;;10.60;5.80;;;;;;;3.68;71.92;101624.39;1715048;80;21350;-60
2021/01/03 07:06:11;;;;;;;11.70;6.28;;;;;;;3.56;72.16;101623.91;1754486;79;21199;-61
2021/01/03 07:08:54;;;;;;;11.22;4.85;;;;;;;3.51;72.35;101621.02;1755125;79;21505;-60
2021/01/03 07:12:05;;;;;;;10.70;5.78;;;;;;;3.48;72.45;101621.53;1751602;79;21676;-61
2021/01/03 07:15:19;;;;;;;13.28;5.75;;;;;;;3.53;72.43;101628.31;1737088;80;21480;-62
2021/01/03 07:18:35;;;;;;;11.20;6.37;;;;;;;3.65;72.31;101624.48;1760441;79;22077;-61
2021/01/03 07:21:30;;;;;;;9.15;4.30;;;;;;;3.82;72.14;101620.50;1859789;75;22660;-61
2021/01/03 07:24:38;;;;;;;9.15;4.65;;;;;;;3.83;72.05;101620.88;1827946;77;21218;-61
2021/01/03 07:27:29;;;;;;;8.53;4.80;;;;;;;3.83;72.05;101623.48;1837641;76;21425;-62
2021/01/03 07:30:06;;;;;;;11.18;5.53;;;;;;;3.82;72.25;101623.94;1826183;77;21206;-62
2021/01/03 07:32:41;;;;;;;8.88;4.60;;;;;;;3.84;72.31;101625.20;1798794;77;21207;-62
2021/01/03 07:35:29;;;;;;;9.40;4.78;;;;;;;3.84;72.31;101614.33;1753115;80;21882;-62
2021/01/03 07:38:21;;;;;;;8.50;4.33;;;;;;;3.81;72.27;101618.78;1780509;78;21212;-60
2021/01/03 07:41:04;;;;;;;11.78;5.67;;;;;;;3.86;72.26;101619.48;1780297;79;22355;-61
2021/01/03 07:43:29;;;;;;;8.50;4.85;;;;;;;3.97;72.09;101619.13;1775116;79;21238;-62
2021/01/03 07:45:56;;;;;;;10.82;5.15;;;;;;;4.05;71.98;101621.03;1762541;78;21782;-61
2021/01/03 07:48:39;;;;;;;10.65;4.95;;;;;;;4.08;71.97;101620.94;1773419;78;21370;-61
2021/01/03 07:51:11;;;;;;;10.93;5.78;;;;;;;4.10;72.03;101619.13;1779004;78;21641;-62
2021/01/03 07:53:39;;;;;;;10.88;5.22;;;;;;;4.10;71.97;101620.42;1783166;78;22696;-61
2021/01/03 07:56:32;;;;;;;13.18;5.90;;;;;;;4.07;72.09;101618.79;1776397;79;21201;-62
2021/01/03 07:59:00;;;;;;;11.57;5.97;;;;;;;4.06;72.11;101615.77;1781632;79;21175;-62
2021/01/03 08:01:32;;;;;;;12.10;6.20;;;;;;;4.04;72.10;101610.23;1775613;79;21848;-63
2021/01/03 08:04:30;;;;;;;13.48;6.08;;;;;;;4.08;72.07;101614.42;1770393;79;21232;-62
2021/01/03 08:07:15;;;;;;;12.78;5.90;;;;;;;4.18;71.75;101613.21;1774614;78;21218;-64
2021/01/03 08:09:43;;;;;;;15.43;5.83;;;;;;;4.26;71.32;101606.45;1757133;80;21731;-61
2021/01/03 08:12:21;;;;;;;11.55;5.80;;;;;;;4.26;71.32;101606.45;1781454;79;21520;-61
2021/01/03 08:14:53;;;;;;;13.30;6.83;;;;;;;4.27;71.54;101615.52;1778011;79;21226;-60
2021/01/03 08:17:30;;;;;;;10.35;6.12;;;;;;;4.27;71.56;101609.01;1768672;79;21173;-61
2021/01/03 08:20:02;;;;;;;14.05;7.33;;;;;;;4.25;71.42;101612.13;1768615;79;22142;-60
2021/01/03 08:22:40;;;;;;;13.58;6.28;;;;;;;4.23;71.38;101618.27;1765762;79;21184;-60
2021/01/03 08:25:17;;;;;;;13.72;6.17;;;;;;;4.21;71.38;101613.58;1756280;80;21458;-61
2021/01/03 08:28:10;;;;;;;10.13;5.40;;;;;;;4.18;71.25;101605.85;1755748;80;21500;-62
2021/01/03 08:30:38;;;;;;;10.10;5.00;;;;;;;4.23;71.01;101614.36;1746731;80;21518;-61
2021/01/03 08:33:20;;;;;;;10.63;5.03;;;;;;;4.27;70.72;101612.91;1768053;78;21210;-61
2021/01/03 08:35:48;;;;;;;9.20;4.15;;;;;;;4.35;70.50;101607.89;1769780;78;21170;-60
2021/01/03 08:38:35;;;;;;;13.90;7.08;;;;;;;4.38;70.44;101610.39;1778253;78;21207;-62
2021/01/03 08:41:15;;;;;;;12.18;5.45;;;;;;;4.36;70.30;101612.20;1784008;78;21786;-62
2021/01/03 08:43:46;;;;;;;12.88;6.62;;;;;;;4.26;70.17;101619.02;1762099;79;21205;-61
2021/01/03 08:46:18;;;;;;;10.90;5.97;;;;;;;4.17;70.28;101615.44;1761130;80;23510;-62
2021/01/03 08:48:48;;;;;;;13.62;6.62;;;;;;;4.13;70.39;101614.28;1762770;79;21614;-60
2021/01/03 08:51:16;;;;;;;14.47;7.35;;;;;;;4.13;70.51;101615.12;1780702;78;21758;-61
2021/01/03 08:53:46;;;;;;;13.68;5.85;;;;;;;4.10;70.65;101616.52;1759765;79;21224;-61
2021/01/03 08:56:19;;;;;;;10.10;5.78;;;;;;;4.12;70.54;101621.68;1752426;80;21179;-62
2021/01/03 08:58:46;;;;;;;11.68;6.40;;;;;;;4.23;70.36;101623.48;1782732;78;22250;-63
2021/01/03 09:01:24;;;;;;;10.63;5.83;;;;;;;4.33;70.26;101624.88;1762746;80;21638;-60
2021/01/03 09:03:58;;;;;;;11.63;5.83;;;;;;;4.38;70.18;101632.08;1771316;78;21177;-61
2021/01/03 09:06:29;;;;;;;14.07;6.40;;;;;;;4.42;70.11;101628.48;1774058;78;21708;-61
2021/01/03 09:09:11;;;;;;;11.22;5.92;;;;;;;4.44;69.81;101633.64;1786865;78;21103;-61
2021/01/03 09:11:54;;;;;;;13.30;6.95;;;;;;;4.42;69.95;101641.94;1753844;79;21257;-62
2021/01/03 09:14:29;;;;;;;12.98;5.67;;;;;;;4.40;69.90;101635.94;1753165;80;21170;-66
2021/01/03 09:17:14;;;;;;;21.07;7.17;;;;;;;4.35;70.13;101636.09;1776131;80;21155;-60
2021/01/03 09:20:15;;;;;;;9.70;5.53;;;;;;;4.32;70.10;101640.13;1759212;79;21762;-61
2021/01/03 09:22:45;;;;;;;11.50;6.42;;;;;;;4.42;69.90;101628.48;1789647;77;21454;-62
2021/01/03 09:25:42;;;;;;;9.25;5.67;;;;;;;4.55;69.76;101630.19;1799070;79;21757;-61
2021/01/03 09:28:13;;;;;;;16.95;8.20;;;;;;;4.61;69.58;101637.81;1706662;82;21261;-62
2021/01/03 09:30:44;;;;;;;17.90;8.45;;;;;;;4.62;69.66;101633.44;1693060;83;21250;-63
2021/01/03 09:33:24;;;;;;;22.77;7.10;;;;;;;4.64;69.67;101627.74;1701154;82;21309;-61
2021/01/03 09:36:47;;;;;;;12.18;6.70;;;;;;;4.64;69.50;101623.83;1703806;82;21234;-61
2021/01/03 09:42:37;;;;;;;10.95;5.83;;;;;;;4.50;69.55;101623.45;1712612;82;21670;-62
2021/01/03 09:48:39;;;;;;;11.25;6.67;;;;;;;4.53;69.68;101629.41;1688922;83;21248;-67
2021/01/03 09:51:34;;;;;;;10.85;6.08;;;;;;;4.65;69.52;101623.75;1651413;84;21173;-67
2021/01/03 09:54:16;;;;;;;12.15;6.28;;;;;;;4.72;69.46;101619.63;1688100;83;22069;-67
2021/01/03 09:56:45;;;;;;;12.65;6.83;;;;;;;4.74;69.34;101613.47;1690371;83;21823;-66
2021/01/03 09:59:22;;;;;;;11.83;7.12;;;;;;;4.79;69.49;101602.41;1820059;77;23441;-55
2021/01/03 10:01:50;;;;;;;14.10;7.05;;;;;;;4.79;69.44;101595.89;1794291;78;21623;-55
2021/01/03 10:04:23;;;;;;;16.60;7.55;;;;;;;4.80;69.16;101598.88;1747221;80;22297;-55
2021/01/03 10:06:55;;;;;;;13.98;6.85;;;;;;;4.78;69.23;101605.08;1773837;80;21626;-55
2021/01/03 10:09:30;;;;;;;15.00;7.25;;;;;;;4.74;69.33;101595.22;1746352;80;21234;-54
2021/01/03 10:11:58;;;;;;;15.43;7.28;;;;;;;4.75;69.13;101591.68;1768077;80;27006;-55
2021/01/03 10:14:33;;;;;;;17.12;7.15;;;;;;;4.80;68.73;101583.70;1768029;78;21224;-54
2021/01/03 10:17:19;;;;;;;12.58;6.37;;;;;;;4.82;68.64;101583.18;1834632;76;23578;-54
2021/01/03 10:19:48;;;;;;;10.08;5.55;;;;;;;4.74;68.64;101591.73;1811361;79;21253;-55
2021/01/03 10:22:33;;;;;;;15.63;6.30;;;;;;;4.64;68.91;101593.84;1796062;79;21472;-54
2021/01/03 10:25:10;;;;;;;15.53;7.17;;;;;;;4.64;68.91;101593.84;1793397;77;21227;-54
2021/01/03 10:27:37;;;;;;;13.90;6.87;;;;;;;4.67;69.10;101600.23;1790983;79;21602;-55
2021/01/03 10:30:08;;;;;;;14.83;6.40;;;;;;;4.63;68.99;101598.66;1806174;79;21202;-55
2021/01/03 10:32:38;;;;;;;11.95;5.70;;;;;;;4.65;68.97;101594.23;1799323;79;21171;-55
2021/01/03 10:35:08;;;;;;;12.68;6.22;;;;;;;4.74;68.75;101590.43;1783954;79;21210;-55
2021/01/03 10:37:35;;;;;;;10.78;6.45;;;;;;;4.80;68.58;101580.62;1811360;79;21167;-54
2021/01/03 10:40:05;;;;;;;10.32;5.75;;;;;;;4.85;68.58;101580.47;1806623;79;21183;-55
2021/01/03 10:42:36;;;;;;;13.85;5.87;;;;;;;4.86;68.52;101579.57;1790697;79;21104;-55
2021/01/03 10:45:10;;;;;;;9.90;5.10;;;;;;;4.82;68.44;101575.36;1803779;79;21194;-54
2021/01/03 10:47:38;;;;;;;11.08;5.87;;;;;;;4.82;68.64;101580.57;1804478;77;21352;-55
2021/01/03 10:50:10;;;;;;;15.35;5.78;;;;;;;4.78;68.58;101575.92;1800466;79;21234;-55
2021/01/03 10:52:37;;;;;;;11.75;5.42;;;;;;;4.74;68.51;101572.18;1811568;79;21211;-54
2021/01/03 10:55:20;;;;;;;11.03;5.67;;;;;;;4.71;68.71;101573.59;1814798;79;21246;-55
2021/01/03 10:57:54;;;;;;;11.60;5.60;;;;;;;4.68;68.72;101565.91;1790755;77;21163;-55
2021/01/03 11:00:22;;;;;;;12.33;5.42;;;;;;;4.83;68.24;101562.73;1793421;79;21233;-54
2021/01/03 11:02:50;;;;;;;11.83;5.55;;;;;;;4.92;68.38;101561.06;1800176;79;21179;-55
2021/01/03 11:05:18;;;;;;;11.95;6.15;;;;;;;4.92;68.38;101561.06;1814096;78;21151;-55
2021/01/03 11:07:46;;;;;;;10.82;6.42;;;;;;;4.96;68.17;101560.06;1805031;78;21198;-56
2021/01/03 11:10:14;;;;;;;11.30;5.53;;;;;;;4.97;68.10;101555.22;1801630;79;21206;-55
2021/01/03 11:12:41;;;;;;;8.65;4.90;;;;;;;4.98;68.12;101552.18;1805431;78;21344;-55
2021/01/03 11:15:12;;;;;;;8.20;4.83;;;;;;;4.98;68.23;101549.57;1809678;78;21248;-55
2021/01/03 11:17:42;;;;;;;8.33;4.50;;;;;;;4.91;68.49;101551.56;1794115;78;21186;-55
2021/01/03 11:20:11;;;;;;;8.80;4.47;;;;;;;4.91;68.49;101551.56;1782210;80;21210;-56
2021/01/03 11:22:38;;;;;;;8.50;4.58;;;;;;;4.84;68.31;101553.55;1782817;80;21210;-55
2021/01/03 11:28:04;;;;;;;8.58;4.10;;;;;;;4.98;67.98;101551.72;1780570;78;21218;-55
2021/01/03 11:30:46;;;;;;;8.00;3.62;;;;;;;4.98;67.98;101551.72;1792852;78;21598;-54
2021/01/03 11:36:57;;;;;;;7.15;3.05;;;;;;;4.98;68.48;101546.50;1782652;78;22107;-54
2021/01/03 11:39:25;;;;;;;7.05;3.55;;;;;;;4.97;68.57;101547.39;1794825;78;21373;-54
2021/01/03 11:41:55;;;;;;;7.97;3.90;;;;;;;4.91;68.71;101542.43;1786344;80;21608;-54
2021/01/03 11:44:25;;;;;;;7.08;3.85;;;;;;;4.86;68.88;101539.15;1785816;78;21151;-54
2021/01/03 11:46:59;;;;;;;7.33;4.05;;;;;;;4.78;68.91;101549.85;1784248;78;21132;-54
2021/01/03 11:49:27;;;;;;;18.40;3.98;;;;;;;4.81;68.96;101558.87;1787423;80;21187;-54
2021/01/03 11:51:55;;;;;;;7.50;3.83;;;;;;;4.89;68.82;101547.30;1785307;80;22336;-53
2021/01/03 11:54:22;;;;;;;8.03;3.80;;;;;;;4.95;68.83;101556.20;1785693;80;21230;-55
2021/01/03 11:57:38;;;;;;;8.60;3.35;;;;;;;4.95;68.83;101556.20;1784865;80;21200;-55
2021/01/03 12:00:19;;;;;;;;;;;;;;;4.94;69.07;101552.75;1784804;80;21410;-54
2021/01/03 12:02:46;;;;;;;7.45;3.85;;;;;;;4.92;69.20;101549.80;1786701;80;20282;-54
2021/01/03 12:05:18;;;;;;;8.70;4.10;;;;;;;4.88;69.43;101550.83;1777082;80;22237;-53
2021/01/03 12:08:07;;;;;;;7.30;3.10;;;;;;;4.89;69.55;101552.05;1782733;80;21202;-54
2021/01/03 12:10:39;;;;;;;6.42;3.42;;;;;;;4.88;69.61;101543.84;1780641;80;21159;-55
2021/01/03 12:13:07;;;;;;;7.25;3.00;;;;;;;5.00;69.34;101548.59;1758148;81;21574;-55
2021/01/03 12:15:35;;;;;;;8.58;3.95;;;;;;;5.15;69.16;101539.33;1729925;81;21295;-55
2021/01/03 12:18:08;;;;;;;8.63;4.33;;;;;;;5.27;68.95;101532.77;1759002;81;21738;-54
2021/01/03 12:20:35;;;;;;;9.83;4.22;;;;;;;5.34;68.59;101534.22;1812817;79;21136;-54
2021/01/03 12:23:05;;;;;;;10.58;3.92;;;;;;;5.34;68.59;101534.22;1806735;79;21184;-54
2021/01/03 12:25:32;;;;;;;9.68;4.08;;;;;;;5.36;68.73;101531.55;1806139;79;21155;-55
2021/01/03 12:28:01;;;;;;;7.62;3.52;;;;;;;5.35;68.74;101531.18;1804624;79;21168;-55
2021/01/03 12:30:28;;;;;;;8.58;3.87;;;;;;;5.35;68.74;101531.18;1810359;79;21383;-55
2021/01/03 12:33:01;;;;;;;7.53;3.55;;;;;;;5.35;68.68;101529.41;1801074;77;21192;-54
2021/01/03 12:35:30;;;;;;;7.17;3.77;;;;;;;5.33;68.55;101534.28;1813718;79;21192;-54
2021/01/03 12:37:58;;;;;;;7.75;3.75;;;;;;;5.30;68.58;101529.21;1812431;79;21843;-54
2021/01/03 12:40:25;;;;;;;8.53;4.03;;;;;;;5.33;68.48;101523.84;1808569;79;21288;-54
2021/01/03 12:43:04;;;;;;;7.92;3.62;;;;;;;5.34;68.52;101519.87;1804676;79;22285;-55
2021/01/03 12:45:31;;;;;;;8.35;4.33;;;;;;;5.37;68.28;101517.14;1797951;79;21670;-54
2021/01/03 12:47:59;;;;;;;15.03;5.60;;;;;;;5.30;68.39;101516.16;1808206;77;21776;-54
2021/01/03 12:50:27;;;;;;;15.30;4.92;;;;;;;5.26;68.04;101508.91;1797607;79;21175;-54
2021/01/03 12:52:58;;;;;;;9.55;4.70;;;;;;;5.22;68.01;101512.53;1802026;77;21194;-53